Patrick Air Force Base

About
Name: Patrick Air Force Base
Identifier:  COF/KCOF
Local Time:  21. Sep 08:09 EDT
Location
Statistics
Flights per Day:
0 flights
Distance: 1,280km (795mi)
Flights delayed:
0% (0 flights per day delayed)
Delay Average: 39 minutes
Current Weather
 26 C (Humidity: 69%)
  15kt (27km/h / 17mph) from 80°
  16km (10 mi.)
 
 METAR KCOF 211056Z AUTO 08015KT 10SM CLR 26/20 A3012 RMK AO2 SLP204 T02620200 $

Current Delays

Departures
N/A
Arrivals
N/A

Destinations

Top Destinations
Airport Flights
per week
Seats
per week
  Antigua (ANU) 0 25 0 3
  Wilmington (ILN) 0 - 0 0

Airlines & Planes

Top Airlines
Airline Flights
per Day
Seats
per Day
  Air Transport International 0 3
Top Plane Types
Model Flights Seats
Boeing B757-200 0.1/day 3/day 3.566666666666667